MNL weather

Ninoy Aquino International Airport
Manila, Philippines

Public forecast

Using degrees Celsius for public forecast. Weather courtesy of forecast.io.

METAR (pilot weather report)

Retrieved 2018/06/19 08:00 UTC (8 minutes ago):

RPLL 190800Z 28014KT 9999 FEW025 SCT100 32/25 Q1009 NOSIG RMK A2980

TAF (pilot weather forecast)

Retrieved 2018/06/19 06:00 UTC (2 hours ago):

TAF RPLL 190500Z 1906/2012 25008KT 9999 FEW023 BKN100 TX33/1906Z TN27/1921Z TEMPO 1906/1912 27014KT SCT023 BKN100 TEMPO 1912/1918 28010KT SCT023 BKN300